sensor_id;sensor_type;location;lat;lon;timestamp;P1;durP1;ratioP1;P2;durP2;ratioP2
75892;SDS011;64572;50.950;3.676;2023-03-19T00:02:14;12.40;;;6.50;;
75892;SDS011;64572;50.950;3.676;2023-03-19T00:04:40;14.48;;;7.05;;
75892;SDS011;64572;50.950;3.676;2023-03-19T00:07:05;12.38;;;6.50;;
75892;SDS011;64572;50.950;3.676;2023-03-19T00:09:31;15.68;;;7.13;;
75892;SDS011;64572;50.950;3.676;2023-03-19T00:11:57;13.35;;;6.38;;
75892;SDS011;64572;50.950;3.676;2023-03-19T00:14:22;13.55;;;6.28;;
75892;SDS011;64572;50.950;3.676;2023-03-19T00:16:48;12.52;;;6.10;;
75892;SDS011;64572;50.950;3.676;2023-03-19T00:19:14;13.27;;;6.55;;
75892;SDS011;64572;50.950;3.676;2023-03-19T00:21:40;15.88;;;7.43;;
75892;SDS011;64572;50.950;3.676;2023-03-19T00:24:06;14.75;;;7.15;;
75892;SDS011;64572;50.950;3.676;2023-03-19T00:26:34;13.57;;;7.30;;
75892;SDS011;64572;50.950;3.676;2023-03-19T00:29:01;14.98;;;7.75;;
75892;SDS011;64572;50.950;3.676;2023-03-19T00:31:27;18.25;;;7.38;;
75892;SDS011;64572;50.950;3.676;2023-03-19T00:33:55;15.93;;;7.97;;
75892;SDS011;64572;50.950;3.676;2023-03-19T00:36:23;12.80;;;7.10;;
75892;SDS011;64572;50.950;3.676;2023-03-19T00:38:49;14.68;;;7.47;;
75892;SDS011;64572;50.950;3.676;2023-03-19T00:41:16;14.07;;;7.88;;
75892;SDS011;64572;50.950;3.676;2023-03-19T00:43:43;15.63;;;7.88;;
75892;SDS011;64572;50.950;3.676;2023-03-19T00:46:08;13.15;;;6.15;;
75892;SDS011;64572;50.950;3.676;2023-03-19T00:48:34;12.48;;;5.47;;
75892;SDS011;64572;50.950;3.676;2023-03-19T00:51:07;13.93;;;7.95;;
75892;SDS011;64572;50.950;3.676;2023-03-19T00:53:38;15.43;;;9.10;;
75892;SDS011;64572;50.950;3.676;2023-03-19T00:56:08;16.00;;;8.23;;
75892;SDS011;64572;50.950;3.676;2023-03-19T00:58:35;13.60;;;8.30;;
75892;SDS011;64572;50.950;3.676;2023-03-19T01:01:02;14.32;;;7.68;;
75892;SDS011;64572;50.950;3.676;2023-03-19T01:03:29;13.02;;;6.50;;
75892;SDS011;64572;50.950;3.676;2023-03-19T01:05:54;12.82;;;6.43;;
75892;SDS011;64572;50.950;3.676;2023-03-19T01:08:21;10.88;;;5.32;;
75892;SDS011;64572;50.950;3.676;2023-03-19T01:10:47;11.57;;;5.65;;
75892;SDS011;64572;50.950;3.676;2023-03-19T01:13:12;12.75;;;5.50;;
75892;SDS011;64572;50.950;3.676;2023-03-19T01:15:39;13.05;;;5.45;;
75892;SDS011;64572;50.950;3.676;2023-03-19T01:18:06;12.95;;;4.95;;
75892;SDS011;64572;50.950;3.676;2023-03-19T01:20:33;13.32;;;5.05;;
75892;SDS011;64572;50.950;3.676;2023-03-19T01:23:00;11.87;;;4.70;;
75892;SDS011;64572;50.950;3.676;2023-03-19T01:25:26;10.88;;;4.65;;
75892;SDS011;64572;50.950;3.676;2023-03-19T01:27:51;11.80;;;4.85;;
75892;SDS011;64572;50.950;3.676;2023-03-19T01:30:17;12.15;;;4.63;;
75892;SDS011;64572;50.950;3.676;2023-03-19T01:32:43;10.98;;;4.70;;
75892;SDS011;64572;50.950;3.676;2023-03-19T01:35:09;14.48;;;4.97;;
75892;SDS011;64572;50.950;3.676;2023-03-19T01:37:34;14.30;;;4.57;;
75892;SDS011;64572;50.950;3.676;2023-03-19T01:40:01;14.55;;;4.88;;
75892;SDS011;64572;50.950;3.676;2023-03-19T01:42:27;15.43;;;5.10;;
75892;SDS011;64572;50.950;3.676;2023-03-19T01:44:53;11.80;;;4.63;;
75892;SDS011;64572;50.950;3.676;2023-03-19T01:47:32;12.43;;;4.80;;
75892;SDS011;64572;50.950;3.676;2023-03-19T01:50:01;15.00;;;5.07;;
75892;SDS011;64572;50.950;3.676;2023-03-19T01:52:28;12.90;;;4.50;;
75892;SDS011;64572;50.950;3.676;2023-03-19T01:54:58;13.10;;;4.75;;
75892;SDS011;64572;50.950;3.676;2023-03-19T01:57:27;12.95;;;5.00;;
75892;SDS011;64572;50.950;3.676;2023-03-19T01:59:54;14.07;;;4.97;;
75892;SDS011;64572;50.950;3.676;2023-03-19T02:07:37;12.68;;;5.18;;
75892;SDS011;64572;50.950;3.676;2023-03-19T02:12:32;12.32;;;5.20;;
75892;SDS011;64572;50.950;3.676;2023-03-19T02:14:58;13.40;;;5.55;;
75892;SDS011;64572;50.950;3.676;2023-03-19T02:17:24;13.23;;;5.57;;
75892;SDS011;64572;50.950;3.676;2023-03-19T02:22:25;12.52;;;5.32;;
75892;SDS011;64572;50.950;3.676;2023-03-19T02:24:55;13.20;;;5.75;;
75892;SDS011;64572;50.950;3.676;2023-03-19T02:27:26;13.10;;;5.80;;
75892;SDS011;64572;50.950;3.676;2023-03-19T02:29:52;15.15;;;5.57;;
75892;SDS011;64572;50.950;3.676;2023-03-19T02:32:18;15.30;;;5.47;;
75892;SDS011;64572;50.950;3.676;2023-03-19T02:34:43;14.80;;;6.22;;
75892;SDS011;64572;50.950;3.676;2023-03-19T02:37:11;15.40;;;6.60;;
75892;SDS011;64572;50.950;3.676;2023-03-19T02:42:15;17.23;;;6.80;;
75892;SDS011;64572;50.950;3.676;2023-03-19T02:44:43;19.15;;;7.28;;
75892;SDS011;64572;50.950;3.676;2023-03-19T02:47:10;17.33;;;7.40;;
75892;SDS011;64572;50.950;3.676;2023-03-19T02:49:36;20.02;;;8.82;;
75892;SDS011;64572;50.950;3.676;2023-03-19T02:52:01;14.82;;;7.18;;
75892;SDS011;64572;50.950;3.676;2023-03-19T02:54:27;18.33;;;8.00;;
75892;SDS011;64572;50.950;3.676;2023-03-19T02:56:53;16.63;;;8.05;;
75892;SDS011;64572;50.950;3.676;2023-03-19T02:59:19;18.08;;;9.32;;
75892;SDS011;64572;50.950;3.676;2023-03-19T03:01:45;17.30;;;8.55;;
75892;SDS011;64572;50.950;3.676;2023-03-19T03:04:11;18.85;;;9.40;;
75892;SDS011;64572;50.950;3.676;2023-03-19T03:06:39;16.52;;;8.98;;
75892;SDS011;64572;50.950;3.676;2023-03-19T03:09:04;18.67;;;9.70;;
75892;SDS011;64572;50.950;3.676;2023-03-19T03:11:30;22.38;;;9.68;;
75892;SDS011;64572;50.950;3.676;2023-03-19T03:13:56;22.55;;;10.18;;
75892;SDS011;64572;50.950;3.676;2023-03-19T03:16:22;19.50;;;10.73;;
75892;SDS011;64572;50.950;3.676;2023-03-19T03:18:48;16.55;;;9.27;;
75892;SDS011;64572;50.950;3.676;2023-03-19T03:21:13;18.20;;;9.55;;
75892;SDS011;64572;50.950;3.676;2023-03-19T03:23:39;18.63;;;10.18;;
75892;SDS011;64572;50.950;3.676;2023-03-19T03:26:05;18.15;;;10.30;;
75892;SDS011;64572;50.950;3.676;2023-03-19T03:28:31;18.58;;;10.43;;
75892;SDS011;64572;50.950;3.676;2023-03-19T03:31:00;20.45;;;10.15;;
75892;SDS011;64572;50.950;3.676;2023-03-19T03:33:26;20.13;;;10.13;;
75892;SDS011;64572;50.950;3.676;2023-03-19T03:35:52;17.70;;;9.65;;
75892;SDS011;64572;50.950;3.676;2023-03-19T03:38:18;20.30;;;8.95;;
75892;SDS011;64572;50.950;3.676;2023-03-19T03:40:48;19.55;;;9.45;;
75892;SDS011;64572;50.950;3.676;2023-03-19T03:43:15;20.85;;;9.27;;
75892;SDS011;64572;50.950;3.676;2023-03-19T03:45:42;22.02;;;9.10;;
75892;SDS011;64572;50.950;3.676;2023-03-19T03:48:08;19.90;;;7.88;;
75892;SDS011;64572;50.950;3.676;2023-03-19T03:50:34;19.60;;;8.65;;
75892;SDS011;64572;50.950;3.676;2023-03-19T03:53:00;21.67;;;8.68;;
75892;SDS011;64572;50.950;3.676;2023-03-19T03:55:26;20.55;;;7.90;;
75892;SDS011;64572;50.950;3.676;2023-03-19T03:57:52;20.60;;;7.75;;
75892;SDS011;64572;50.950;3.676;2023-03-19T04:00:18;25.50;;;7.43;;
75892;SDS011;64572;50.950;3.676;2023-03-19T04:02:44;22.95;;;7.25;;
75892;SDS011;64572;50.950;3.676;2023-03-19T04:05:10;23.58;;;8.20;;
75892;SDS011;64572;50.950;3.676;2023-03-19T04:07:36;20.48;;;7.43;;
75892;SDS011;64572;50.950;3.676;2023-03-19T04:10:02;23.63;;;8.02;;
75892;SDS011;64572;50.950;3.676;2023-03-19T04:12:29;21.52;;;7.75;;
75892;SDS011;64572;50.950;3.676;2023-03-19T04:14:55;24.80;;;7.07;;
75892;SDS011;64572;50.950;3.676;2023-03-19T04:17:20;24.48;;;7.47;;
75892;SDS011;64572;50.950;3.676;2023-03-19T04:19:47;21.80;;;7.03;;
75892;SDS011;64572;50.950;3.676;2023-03-19T04:22:13;26.70;;;7.32;;
75892;SDS011;64572;50.950;3.676;2023-03-19T04:24:39;22.40;;;6.15;;
75892;SDS011;64572;50.950;3.676;2023-03-19T04:27:06;18.75;;;5.85;;
75892;SDS011;64572;50.950;3.676;2023-03-19T04:29:32;23.48;;;5.93;;
75892;SDS011;64572;50.950;3.676;2023-03-19T04:31:58;19.42;;;5.93;;
75892;SDS011;64572;50.950;3.676;2023-03-19T04:34:24;17.98;;;4.93;;
75892;SDS011;64572;50.950;3.676;2023-03-19T04:36:49;16.30;;;4.95;;
75892;SDS011;64572;50.950;3.676;2023-03-19T04:39:16;19.60;;;6.15;;
75892;SDS011;64572;50.950;3.676;2023-03-19T04:41:42;19.10;;;4.88;;
75892;SDS011;64572;50.950;3.676;2023-03-19T04:44:08;22.30;;;4.85;;
75892;SDS011;64572;50.950;3.676;2023-03-19T04:46:34;23.80;;;5.13;;
75892;SDS011;64572;50.950;3.676;2023-03-19T04:49:00;19.08;;;4.82;;
75892;SDS011;64572;50.950;3.676;2023-03-19T04:51:26;18.60;;;4.40;;
75892;SDS011;64572;50.950;3.676;2023-03-19T04:53:52;22.45;;;4.85;;
75892;SDS011;64572;50.950;3.676;2023-03-19T04:56:17;19.20;;;4.65;;
75892;SDS011;64572;50.950;3.676;2023-03-19T04:58:43;15.43;;;4.63;;
75892;SDS011;64572;50.950;3.676;2023-03-19T05:01:10;21.58;;;4.88;;
75892;SDS011;64572;50.950;3.676;2023-03-19T05:03:35;18.30;;;4.68;;
75892;SDS011;64572;50.950;3.676;2023-03-19T05:06:01;21.55;;;4.57;;
75892;SDS011;64572;50.950;3.676;2023-03-19T05:08:27;18.58;;;4.43;;
75892;SDS011;64572;50.950;3.676;2023-03-19T05:10:53;18.58;;;4.50;;
75892;SDS011;64572;50.950;3.676;2023-03-19T05:13:18;21.30;;;4.65;;
75892;SDS011;64572;50.950;3.676;2023-03-19T05:15:44;21.05;;;4.80;;
75892;SDS011;64572;50.950;3.676;2023-03-19T05:18:10;17.98;;;4.93;;
75892;SDS011;64572;50.950;3.676;2023-03-19T05:20:37;20.73;;;4.85;;
75892;SDS011;64572;50.950;3.676;2023-03-19T05:23:03;19.55;;;6.32;;
75892;SDS011;64572;50.950;3.676;2023-03-19T05:25:30;24.20;;;5.53;;
75892;SDS011;64572;50.950;3.676;2023-03-19T05:27:56;17.45;;;4.90;;
75892;SDS011;64572;50.950;3.676;2023-03-19T05:30:22;22.00;;;5.68;;
75892;SDS011;64572;50.950;3.676;2023-03-19T05:32:48;19.08;;;5.28;;
75892;SDS011;64572;50.950;3.676;2023-03-19T05:35:14;18.77;;;4.75;;
75892;SDS011;64572;50.950;3.676;2023-03-19T05:37:41;22.15;;;5.13;;
75892;SDS011;64572;50.950;3.676;2023-03-19T05:40:07;19.13;;;5.43;;
75892;SDS011;64572;50.950;3.676;2023-03-19T05:42:33;22.67;;;4.68;;
75892;SDS011;64572;50.950;3.676;2023-03-19T05:44:59;20.20;;;5.50;;
75892;SDS011;64572;50.950;3.676;2023-03-19T05:47:25;25.15;;;5.95;;
75892;SDS011;64572;50.950;3.676;2023-03-19T05:49:51;21.63;;;5.00;;
75892;SDS011;64572;50.950;3.676;2023-03-19T05:52:16;20.13;;;5.53;;
75892;SDS011;64572;50.950;3.676;2023-03-19T05:54:42;22.45;;;5.70;;
75892;SDS011;64572;50.950;3.676;2023-03-19T05:57:08;24.33;;;6.13;;
75892;SDS011;64572;50.950;3.676;2023-03-19T05:59:33;22.73;;;6.03;;
75892;SDS011;64572;50.950;3.676;2023-03-19T06:01:59;24.98;;;7.03;;
75892;SDS011;64572;50.950;3.676;2023-03-19T06:04:25;22.90;;;6.60;;
75892;SDS011;64572;50.950;3.676;2023-03-19T06:06:51;25.02;;;6.90;;
75892;SDS011;64572;50.950;3.676;2023-03-19T06:09:17;21.75;;;6.00;;
75892;SDS011;64572;50.950;3.676;2023-03-19T06:11:43;26.27;;;6.82;;
75892;SDS011;64572;50.950;3.676;2023-03-19T06:14:08;19.50;;;5.65;;
75892;SDS011;64572;50.950;3.676;2023-03-19T06:16:34;20.95;;;6.68;;
75892;SDS011;64572;50.950;3.676;2023-03-19T06:19:00;20.83;;;6.38;;
75892;SDS011;64572;50.950;3.676;2023-03-19T06:21:26;19.60;;;5.95;;
75892;SDS011;64572;50.950;3.676;2023-03-19T06:23:54;19.45;;;6.43;;
75892;SDS011;64572;50.950;3.676;2023-03-19T06:26:20;24.90;;;6.90;;
75892;SDS011;64572;50.950;3.676;2023-03-19T06:28:46;22.80;;;8.00;;
75892;SDS011;64572;50.950;3.676;2023-03-19T06:31:12;25.33;;;8.05;;
75892;SDS011;64572;50.950;3.676;2023-03-19T06:33:38;21.83;;;7.68;;
75892;SDS011;64572;50.950;3.676;2023-03-19T06:36:03;22.63;;;8.20;;
75892;SDS011;64572;50.950;3.676;2023-03-19T06:38:30;27.02;;;8.05;;
75892;SDS011;64572;50.950;3.676;2023-03-19T06:40:56;25.60;;;8.57;;
75892;SDS011;64572;50.950;3.676;2023-03-19T06:43:21;26.77;;;8.27;;
75892;SDS011;64572;50.950;3.676;2023-03-19T06:45:47;25.85;;;8.85;;
75892;SDS011;64572;50.950;3.676;2023-03-19T06:48:13;26.20;;;8.05;;
75892;SDS011;64572;50.950;3.676;2023-03-19T06:50:39;25.17;;;8.18;;
75892;SDS011;64572;50.950;3.676;2023-03-19T06:53:06;20.42;;;7.72;;
75892;SDS011;64572;50.950;3.676;2023-03-19T06:55:31;22.33;;;8.82;;
75892;SDS011;64572;50.950;3.676;2023-03-19T06:57:57;25.58;;;9.35;;
75892;SDS011;64572;50.950;3.676;2023-03-19T07:00:23;26.00;;;8.80;;
75892;SDS011;64572;50.950;3.676;2023-03-19T07:02:49;30.17;;;9.77;;
75892;SDS011;64572;50.950;3.676;2023-03-19T07:05:15;19.25;;;8.98;;
75892;SDS011;64572;50.950;3.676;2023-03-19T07:07:40;23.85;;;9.18;;
75892;SDS011;64572;50.950;3.676;2023-03-19T07:10:06;26.15;;;8.95;;
75892;SDS011;64572;50.950;3.676;2023-03-19T07:12:32;24.67;;;9.57;;
75892;SDS011;64572;50.950;3.676;2023-03-19T07:14:58;25.67;;;9.35;;
75892;SDS011;64572;50.950;3.676;2023-03-19T07:17:24;26.83;;;9.30;;
75892;SDS011;64572;50.950;3.676;2023-03-19T07:19:50;22.23;;;8.77;;
75892;SDS011;64572;50.950;3.676;2023-03-19T07:22:16;24.83;;;9.55;;
75892;SDS011;64572;50.950;3.676;2023-03-19T07:24:42;24.00;;;9.40;;
75892;SDS011;64572;50.950;3.676;2023-03-19T07:27:08;27.25;;;9.00;;
75892;SDS011;64572;50.950;3.676;2023-03-19T07:29:34;26.30;;;9.55;;
75892;SDS011;64572;50.950;3.676;2023-03-19T07:32:00;20.98;;;8.77;;
75892;SDS011;64572;50.950;3.676;2023-03-19T07:34:26;34.13;;;11.07;;
75892;SDS011;64572;50.950;3.676;2023-03-19T07:36:52;28.33;;;9.35;;
75892;SDS011;64572;50.950;3.676;2023-03-19T07:39:18;24.35;;;9.20;;
75892;SDS011;64572;50.950;3.676;2023-03-19T07:41:44;27.67;;;10.52;;
75892;SDS011;64572;50.950;3.676;2023-03-19T07:46:38;31.10;;;10.48;;
75892;SDS011;64572;50.950;3.676;2023-03-19T07:49:03;27.77;;;10.38;;
75892;SDS011;64572;50.950;3.676;2023-03-19T07:51:29;21.58;;;10.60;;
75892;SDS011;64572;50.950;3.676;2023-03-19T07:53:55;28.50;;;10.63;;
75892;SDS011;64572;50.950;3.676;2023-03-19T07:56:21;22.67;;;9.80;;
75892;SDS011;64572;50.950;3.676;2023-03-19T07:58:46;25.33;;;9.10;;
75892;SDS011;64572;50.950;3.676;2023-03-19T08:01:12;25.80;;;9.75;;
75892;SDS011;64572;50.950;3.676;2023-03-19T08:03:38;22.38;;;9.50;;
75892;SDS011;64572;50.950;3.676;2023-03-19T08:06:04;23.95;;;10.30;;
75892;SDS011;64572;50.950;3.676;2023-03-19T08:08:30;26.10;;;10.07;;
75892;SDS011;64572;50.950;3.676;2023-03-19T08:10:58;27.35;;;10.85;;
75892;SDS011;64572;50.950;3.676;2023-03-19T08:13:25;22.27;;;9.13;;
75892;SDS011;64572;50.950;3.676;2023-03-19T08:15:51;25.20;;;9.55;;
75892;SDS011;64572;50.950;3.676;2023-03-19T08:18:17;31.60;;;9.63;;
75892;SDS011;64572;50.950;3.676;2023-03-19T08:20:44;25.35;;;10.30;;
75892;SDS011;64572;50.950;3.676;2023-03-19T08:23:11;24.95;;;12.30;;
75892;SDS011;64572;50.950;3.676;2023-03-19T08:25:37;32.40;;;11.30;;
75892;SDS011;64572;50.950;3.676;2023-03-19T08:28:03;26.33;;;11.15;;
75892;SDS011;64572;50.950;3.676;2023-03-19T08:30:29;25.17;;;10.65;;
75892;SDS011;64572;50.950;3.676;2023-03-19T08:32:55;24.58;;;10.15;;
75892;SDS011;64572;50.950;3.676;2023-03-19T08:35:21;24.70;;;10.63;;
75892;SDS011;64572;50.950;3.676;2023-03-19T08:37:48;28.67;;;11.27;;
75892;SDS011;64572;50.950;3.676;2023-03-19T08:40:13;26.27;;;11.02;;
75892;SDS011;64572;50.950;3.676;2023-03-19T08:42:39;27.52;;;12.95;;
75892;SDS011;64572;50.950;3.676;2023-03-19T08:45:10;27.00;;;12.85;;
75892;SDS011;64572;50.950;3.676;2023-03-19T08:47:37;29.75;;;12.23;;
75892;SDS011;64572;50.950;3.676;2023-03-19T08:50:04;30.98;;;12.95;;
75892;SDS011;64572;50.950;3.676;2023-03-19T08:52:30;25.52;;;13.10;;
75892;SDS011;64572;50.950;3.676;2023-03-19T08:54:56;28.65;;;13.65;;
75892;SDS011;64572;50.950;3.676;2023-03-19T08:57:21;32.95;;;14.88;;
75892;SDS011;64572;50.950;3.676;2023-03-19T08:59:47;30.85;;;15.10;;
75892;SDS011;64572;50.950;3.676;2023-03-19T09:02:13;30.85;;;15.00;;
75892;SDS011;64572;50.950;3.676;2023-03-19T09:04:39;42.65;;;16.13;;
75892;SDS011;64572;50.950;3.676;2023-03-19T09:07:06;33.28;;;15.10;;
75892;SDS011;64572;50.950;3.676;2023-03-19T09:09:31;30.27;;;14.75;;
75892;SDS011;64572;50.950;3.676;2023-03-19T09:11:57;33.65;;;16.70;;
75892;SDS011;64572;50.950;3.676;2023-03-19T09:14:23;31.25;;;15.98;;
75892;SDS011;64572;50.950;3.676;2023-03-19T09:16:49;33.28;;;15.95;;
75892;SDS011;64572;50.950;3.676;2023-03-19T09:19:15;38.08;;;16.10;;
75892;SDS011;64572;50.950;3.676;2023-03-19T09:21:41;34.13;;;16.08;;
75892;SDS011;64572;50.950;3.676;2023-03-19T09:24:08;33.37;;;17.20;;
75892;SDS011;64572;50.950;3.676;2023-03-19T09:26:34;39.60;;;17.52;;
75892;SDS011;64572;50.950;3.676;2023-03-19T09:29:00;38.65;;;18.35;;
75892;SDS011;64572;50.950;3.676;2023-03-19T09:31:26;40.83;;;18.42;;
75892;SDS011;64572;50.950;3.676;2023-03-19T09:33:51;41.47;;;19.48;;
75892;SDS011;64572;50.950;3.676;2023-03-19T09:36:17;42.22;;;19.73;;
75892;SDS011;64572;50.950;3.676;2023-03-19T09:38:42;41.28;;;17.17;;
75892;SDS011;64572;50.950;3.676;2023-03-19T09:41:29;47.17;;;21.88;;
75892;SDS011;64572;50.950;3.676;2023-03-19T09:46:45;50.75;;;21.35;;
75892;SDS011;64572;50.950;3.676;2023-03-19T09:49:23;39.05;;;19.23;;
75892;SDS011;64572;50.950;3.676;2023-03-19T09:54:31;42.03;;;20.40;;
75892;SDS011;64572;50.950;3.676;2023-03-19T09:57:00;42.65;;;19.80;;
75892;SDS011;64572;50.950;3.676;2023-03-19T09:59:26;32.80;;;15.68;;
75892;SDS011;64572;50.950;3.676;2023-03-19T10:15:34;34.13;;;16.83;;
75892;SDS011;64572;50.950;3.676;2023-03-19T10:18:03;28.90;;;14.57;;
75892;SDS011;64572;50.950;3.676;2023-03-19T10:25:51;27.27;;;13.55;;
75892;SDS011;64572;50.950;3.676;2023-03-19T10:28:20;26.90;;;13.50;;
75892;SDS011;64572;50.950;3.676;2023-03-19T10:36:49;20.98;;;11.48;;
75892;SDS011;64572;50.950;3.676;2023-03-19T10:39:30;22.98;;;11.60;;
75892;SDS011;64572;50.950;3.676;2023-03-19T10:45:08;17.60;;;9.30;;
75892;SDS011;64572;50.950;3.676;2023-03-19T10:47:45;20.98;;;9.95;;
75892;SDS011;64572;50.950;3.676;2023-03-19T10:50:18;17.83;;;9.75;;
75892;SDS011;64572;50.950;3.676;2023-03-19T10:52:50;18.73;;;9.30;;
75892;SDS011;64572;50.950;3.676;2023-03-19T10:55:25;16.60;;;8.20;;
75892;SDS011;64572;50.950;3.676;2023-03-19T11:00:40;17.40;;;9.13;;
75892;SDS011;64572;50.950;3.676;2023-03-19T11:08:55;19.10;;;8.85;;
75892;SDS011;64572;50.950;3.676;2023-03-19T11:11:25;19.88;;;8.65;;
75892;SDS011;64572;50.950;3.676;2023-03-19T11:13:51;17.10;;;7.68;;
75892;SDS011;64572;50.950;3.676;2023-03-19T11:16:17;17.08;;;8.40;;
75892;SDS011;64572;50.950;3.676;2023-03-19T11:18:44;17.48;;;8.05;;
75892;SDS011;64572;50.950;3.676;2023-03-19T11:21:22;15.90;;;7.18;;
75892;SDS011;64572;50.950;3.676;2023-03-19T11:23:57;17.65;;;7.40;;
75892;SDS011;64572;50.950;3.676;2023-03-19T11:26:25;15.23;;;7.25;;
75892;SDS011;64572;50.950;3.676;2023-03-19T11:28:52;19.17;;;8.63;;
75892;SDS011;64572;50.950;3.676;2023-03-19T11:48:17;15.88;;;6.68;;
75892;SDS011;64572;50.950;3.676;2023-03-19T11:56:43;14.80;;;6.38;;
75892;SDS011;64572;50.950;3.676;2023-03-19T12:07:31;14.10;;;5.65;;
75892;SDS011;64572;50.950;3.676;2023-03-19T12:18:15;12.50;;;4.82;;
75892;SDS011;64572;50.950;3.676;2023-03-19T12:20:55;11.05;;;4.68;;
75892;SDS011;64572;50.950;3.676;2023-03-19T12:23:30;14.40;;;4.30;;
75892;SDS011;64572;50.950;3.676;2023-03-19T12:26:06;8.43;;;3.10;;
75892;SDS011;64572;50.950;3.676;2023-03-19T12:28:35;7.95;;;3.10;;
75892;SDS011;64572;50.950;3.676;2023-03-19T12:40:06;6.35;;;2.70;;
75892;SDS011;64572;50.950;3.676;2023-03-19T12:42:37;8.05;;;3.08;;
75892;SDS011;64572;50.950;3.676;2023-03-19T12:45:21;7.75;;;2.65;;
75892;SDS011;64572;50.950;3.676;2023-03-19T12:47:51;8.68;;;2.70;;
75892;SDS011;64572;50.950;3.676;2023-03-19T12:50:21;8.75;;;2.72;;
75892;SDS011;64572;50.950;3.676;2023-03-19T12:52:49;9.07;;;2.58;;
75892;SDS011;64572;50.950;3.676;2023-03-19T12:58:02;8.18;;;3.15;;
75892;SDS011;64572;50.950;3.676;2023-03-19T13:01:20;12.68;;;3.90;;
75892;SDS011;64572;50.950;3.676;2023-03-19T13:04:01;8.32;;;3.38;;
75892;SDS011;64572;50.950;3.676;2023-03-19T13:06:42;9.13;;;3.13;;
75892;SDS011;64572;50.950;3.676;2023-03-19T13:09:28;11.73;;;4.15;;
75892;SDS011;64572;50.950;3.676;2023-03-19T13:12:14;13.18;;;4.30;;
75892;SDS011;64572;50.950;3.676;2023-03-19T13:14:58;13.65;;;4.13;;
75892;SDS011;64572;50.950;3.676;2023-03-19T13:23:32;13.30;;;4.50;;
75892;SDS011;64572;50.950;3.676;2023-03-19T13:26:01;13.68;;;4.13;;
75892;SDS011;64572;50.950;3.676;2023-03-19T13:28:31;12.95;;;4.47;;
75892;SDS011;64572;50.950;3.676;2023-03-19T13:31:01;9.90;;;3.55;;
75892;SDS011;64572;50.950;3.676;2023-03-19T13:33:29;10.85;;;3.83;;
75892;SDS011;64572;50.950;3.676;2023-03-19T13:36:03;13.90;;;4.45;;
75892;SDS011;64572;50.950;3.676;2023-03-19T13:44:00;14.88;;;4.63;;
75892;SDS011;64572;50.950;3.676;2023-03-19T13:46:43;9.45;;;3.10;;
75892;SDS011;64572;50.950;3.676;2023-03-19T13:51:43;15.23;;;5.70;;
75892;SDS011;64572;50.950;3.676;2023-03-19T13:59:38;15.15;;;6.75;;
75892;SDS011;64572;50.950;3.676;2023-03-19T14:05:15;19.27;;;6.38;;
75892;SDS011;64572;50.950;3.676;2023-03-19T14:07:38;17.92;;;6.15;;
75892;SDS011;64572;50.950;3.676;2023-03-19T14:10:07;14.50;;;5.55;;
75892;SDS011;64572;50.950;3.676;2023-03-19T14:15:14;15.57;;;5.43;;
75892;SDS011;64572;50.950;3.676;2023-03-19T14:17:44;11.38;;;4.50;;
75892;SDS011;64572;50.950;3.676;2023-03-19T14:25:20;15.52;;;5.93;;
75892;SDS011;64572;50.950;3.676;2023-03-19T14:28:09;17.27;;;5.95;;
75892;SDS011;64572;50.950;3.676;2023-03-19T14:30:39;19.50;;;7.05;;
75892;SDS011;64572;50.950;3.676;2023-03-19T14:33:15;17.67;;;5.25;;
75892;SDS011;64572;50.950;3.676;2023-03-19T14:36:20;15.32;;;5.72;;
75892;SDS011;64572;50.950;3.676;2023-03-19T14:38:50;18.77;;;5.93;;
75892;SDS011;64572;50.950;3.676;2023-03-19T14:41:26;16.20;;;5.78;;
75892;SDS011;64572;50.950;3.676;2023-03-19T14:44:04;14.70;;;6.45;;
75892;SDS011;64572;50.950;3.676;2023-03-19T14:46:52;17.33;;;6.03;;
75892;SDS011;64572;50.950;3.676;2023-03-19T14:52:58;14.52;;;5.20;;
75892;SDS011;64572;50.950;3.676;2023-03-19T14:55:42;13.45;;;5.90;;
75892;SDS011;64572;50.950;3.676;2023-03-19T14:58:14;16.17;;;5.57;;
75892;SDS011;64572;50.950;3.676;2023-03-19T15:00:44;11.57;;;5.03;;
75892;SDS011;64572;50.950;3.676;2023-03-19T15:03:17;13.57;;;4.65;;
75892;SDS011;64572;50.950;3.676;2023-03-19T15:05:55;11.18;;;4.22;;
75892;SDS011;64572;50.950;3.676;2023-03-19T15:08:23;17.45;;;4.90;;
75892;SDS011;64572;50.950;3.676;2023-03-19T15:10:56;15.00;;;5.05;;
75892;SDS011;64572;50.950;3.676;2023-03-19T15:19:08;12.85;;;4.22;;
75892;SDS011;64572;50.950;3.676;2023-03-19T15:21:36;16.83;;;4.90;;
75892;SDS011;64572;50.950;3.676;2023-03-19T15:24:02;11.57;;;4.35;;
75892;SDS011;64572;50.950;3.676;2023-03-19T15:26:35;13.65;;;4.80;;
75892;SDS011;64572;50.950;3.676;2023-03-19T15:29:01;16.85;;;4.93;;
75892;SDS011;64572;50.950;3.676;2023-03-19T15:31:46;14.95;;;5.30;;
75892;SDS011;64572;50.950;3.676;2023-03-19T15:34:17;13.35;;;4.88;;
75892;SDS011;64572;50.950;3.676;2023-03-19T15:36:42;18.45;;;4.85;;
75892;SDS011;64572;50.950;3.676;2023-03-19T15:39:09;13.48;;;4.85;;
75892;SDS011;64572;50.950;3.676;2023-03-19T15:41:39;13.57;;;3.70;;
75892;SDS011;64572;50.950;3.676;2023-03-19T15:44:12;15.15;;;4.40;;
75892;SDS011;64572;50.950;3.676;2023-03-19T15:47:00;15.45;;;4.88;;
75892;SDS011;64572;50.950;3.676;2023-03-19T15:49:31;12.63;;;3.60;;
75892;SDS011;64572;50.950;3.676;2023-03-19T15:52:01;15.50;;;4.00;;
75892;SDS011;64572;50.950;3.676;2023-03-19T15:54:31;12.20;;;3.88;;
75892;SDS011;64572;50.950;3.676;2023-03-19T15:56:57;11.15;;;3.22;;
75892;SDS011;64572;50.950;3.676;2023-03-19T15:59:23;11.63;;;3.00;;
75892;SDS011;64572;50.950;3.676;2023-03-19T16:02:00;12.73;;;3.80;;
75892;SDS011;64572;50.950;3.676;2023-03-19T16:04:28;9.18;;;3.20;;
75892;SDS011;64572;50.950;3.676;2023-03-19T16:06:56;8.00;;;2.88;;
75892;SDS011;64572;50.950;3.676;2023-03-19T16:11:49;16.60;;;3.92;;
75892;SDS011;64572;50.950;3.676;2023-03-19T16:14:26;18.35;;;4.93;;
75892;SDS011;64572;50.950;3.676;2023-03-19T16:17:02;10.35;;;4.10;;
75892;SDS011;64572;50.950;3.676;2023-03-19T16:19:49;14.52;;;4.47;;
75892;SDS011;64572;50.950;3.676;2023-03-19T16:22:16;15.00;;;4.43;;
75892;SDS011;64572;50.950;3.676;2023-03-19T16:24:46;11.93;;;4.80;;
75892;SDS011;64572;50.950;3.676;2023-03-19T16:27:15;16.55;;;4.82;;
75892;SDS011;64572;50.950;3.676;2023-03-19T16:29:44;12.70;;;4.32;;
75892;SDS011;64572;50.950;3.676;2023-03-19T16:34:46;13.55;;;4.85;;
75892;SDS011;64572;50.950;3.676;2023-03-19T16:47:52;16.23;;;5.95;;
75892;SDS011;64572;50.950;3.676;2023-03-19T16:50:35;22.70;;;5.47;;
75892;SDS011;64572;50.950;3.676;2023-03-19T16:53:03;16.90;;;5.97;;
75892;SDS011;64572;50.950;3.676;2023-03-19T16:55:50;15.38;;;6.43;;
75892;SDS011;64572;50.950;3.676;2023-03-19T16:58:39;18.80;;;6.63;;
75892;SDS011;64572;50.950;3.676;2023-03-19T17:01:14;14.93;;;5.80;;
75892;SDS011;64572;50.950;3.676;2023-03-19T17:03:46;15.73;;;6.17;;
75892;SDS011;64572;50.950;3.676;2023-03-19T17:06:14;17.67;;;6.43;;
75892;SDS011;64572;50.950;3.676;2023-03-19T17:08:40;17.17;;;7.05;;
75892;SDS011;64572;50.950;3.676;2023-03-19T17:11:09;14.38;;;6.45;;
75892;SDS011;64572;50.950;3.676;2023-03-19T17:13:42;17.83;;;6.00;;
75892;SDS011;64572;50.950;3.676;2023-03-19T17:16:09;15.00;;;6.40;;
75892;SDS011;64572;50.950;3.676;2023-03-19T17:18:35;14.85;;;5.95;;
75892;SDS011;64572;50.950;3.676;2023-03-19T17:23:37;17.50;;;5.90;;
75892;SDS011;64572;50.950;3.676;2023-03-19T17:28:41;15.80;;;6.63;;
75892;SDS011;64572;50.950;3.676;2023-03-19T17:34:03;17.50;;;6.70;;